Time;durP1;ratioP1;P1;durP2;ratioP2;P2;SDS_P1;SDS_P2;PMS_P1;PMS_P2;Temp;Humidity;BMP_temperature;BMP_pressure;BME280_temperature;BME280_humidity;BME280_pressure;Samples;Min_cycle;Max_cycle;Signal;HPM_P1;HPM_P2
2020/12/06 00:01:10;;;;;;;;;;;3.10;99.90;;;;;;5051871;28;20015;-86
2020/12/06 00:03:37;;;;;;;;;;;3.10;99.90;;;;;;5046240;28;20363;-85
2020/12/06 00:06:05;;;;;;;;;;;3.10;99.90;;;;;;5051603;28;19909;-86
2020/12/06 00:08:31;;;;;;;;;;;3.20;99.90;;;;;;5052822;28;19909;-86
2020/12/06 00:10:57;;;;;;;;;;;3.20;99.90;;;;;;5051696;28;20008;-85
2020/12/06 00:13:23;;;;;;;;;;;3.20;99.90;;;;;;5051322;28;19913;-86
2020/12/06 00:15:48;;;;;;;;;;;3.10;99.90;;;;;;5044418;28;19913;-85
2020/12/06 00:18:14;;;;;;;;;;;3.10;99.90;;;;;;5047785;28;19909;-85
2020/12/06 00:20:39;;;;;;;;;;;3.10;99.90;;;;;;5031447;28;20414;-86
2020/12/06 00:23:05;;;;;;;;;;;3.10;99.90;;;;;;5031435;28;19941;-85
2020/12/06 00:25:30;;;;;;;;;;;3.20;99.90;;;;;;5031415;28;20348;-86
2020/12/06 00:27:56;;;;;;;;;;;3.20;99.90;;;;;;5031304;28;19909;-86
2020/12/06 00:30:21;;;;;;;;;;;3.20;99.90;;;;;;5031411;28;19909;-86
2020/12/06 00:32:46;;;;;;;;;;;3.20;99.90;;;;;;5031402;28;20272;-85
2020/12/06 00:35:12;;;;;;;;;;;3.30;99.90;;;;;;5031400;28;19913;-85
2020/12/06 00:37:39;;;;;;;;;;;3.20;99.90;;;;;;5031235;28;20372;-85
2020/12/06 00:40:08;;;;;;;;;;;3.20;99.90;;;;;;5032544;28;19916;-86
2020/12/06 00:42:34;;;;;;;;;;;3.20;99.90;;;;;;5038978;28;19925;-85
2020/12/06 00:45:00;;;;;;;;;;;3.20;99.90;;;;;;5044183;28;19909;-85
2020/12/06 00:47:25;;;;;;;;;;;3.20;99.90;;;;;;5051130;28;19913;-86
2020/12/06 00:49:51;;;;;;;;;;;3.20;99.90;;;;;;5051067;28;20386;-86
2020/12/06 00:52:16;;;;;;;;;;;3.20;99.90;;;;;;5051193;28;19909;-86
2020/12/06 00:54:42;;;;;;;;;;;3.20;99.90;;;;;;5050994;28;20327;-85
2020/12/06 00:57:07;;;;;;;;;;;3.20;99.90;;;;;;5050955;28;20044;-86
2020/12/06 00:59:33;;;;;;;;;;;3.10;99.90;;;;;;5051018;28;19916;-85
2020/12/06 01:01:58;;;;;;;;;;;3.10;99.90;;;;;;5054166;28;19948;-86
2020/12/06 01:04:24;;;;;;;;;;;3.10;99.90;;;;;;5055109;28;19909;-85
2020/12/06 01:06:49;;;;;;;;;;;3.10;99.90;;;;;;5056029;28;19966;-86
2020/12/06 01:09:15;;;;;;;;;;;3.10;99.90;;;;;;5056202;28;19909;-86
2020/12/06 01:11:40;;;;;;;;;;;3.10;99.90;;;;;;5071803;28;19909;-85
2020/12/06 01:14:06;;;;;;;;;;;3.00;99.90;;;;;;5054642;28;19912;-86
2020/12/06 01:16:31;;;;;;;;;;;3.10;99.90;;;;;;5036912;28;19975;-84
2020/12/06 01:18:56;;;;;;;;;;;3.10;99.90;;;;;;5034684;28;19909;-85
2020/12/06 01:21:22;;;;;;;;;;;3.10;99.90;;;;;;5034913;28;20480;-86
2020/12/06 01:23:47;;;;;;;;;;;3.10;99.90;;;;;;5035956;28;20016;-85
2020/12/06 01:26:13;;;;;;;;;;;3.10;99.90;;;;;;5035634;28;19967;-85
2020/12/06 01:28:39;;;;;;;;;;;3.10;99.90;;;;;;5034608;28;20365;-85
2020/12/06 01:31:08;;;;;;;;;;;3.10;99.90;;;;;;5034615;28;19910;-86
2020/12/06 01:33:33;;;;;;;;;;;3.10;99.90;;;;;;5035583;28;19967;-85
2020/12/06 01:35:59;;;;;;;;;;;3.10;99.90;;;;;;5034354;28;19924;-85
2020/12/06 01:38:24;;;;;;;;;;;3.10;99.90;;;;;;5035578;28;20010;-85
2020/12/06 01:40:50;;;;;;;;;;;3.20;99.90;;;;;;5034229;28;19955;-85
2020/12/06 01:43:15;;;;;;;;;;;3.20;99.90;;;;;;5047857;28;20004;-85
2020/12/06 01:45:41;;;;;;;;;;;3.20;99.90;;;;;;5061928;28;19909;-86
2020/12/06 01:48:07;;;;;;;;;;;3.20;99.90;;;;;;5054135;28;20007;-85
2020/12/06 01:50:37;;;;;;;;;;;3.20;99.90;;;;;;5054002;28;19910;-85
2020/12/06 01:53:03;;;;;;;;;;;3.30;99.90;;;;;;5054140;28;19931;-85
2020/12/06 01:55:29;;;;;;;;;;;3.30;99.90;;;;;;5053935;28;19913;-85
2020/12/06 01:58:01;;;;;;;;;;;3.30;99.90;;;;;;5055050;28;19912;-85
2020/12/06 02:00:28;;;;;;;;;;;3.30;99.90;;;;;;5054180;28;19935;-86
2020/12/06 02:02:54;;;;;;;;;;;3.30;99.90;;;;;;5053800;28;19916;-85
2020/12/06 02:05:19;;;;;;;;;;;3.30;99.90;;;;;;5055128;28;20279;-85
2020/12/06 02:07:47;;;;;;;;;;;3.30;99.90;;;;;;5055043;28;19913;-85
2020/12/06 02:10:12;;;;;;;;;;;3.30;99.90;;;;;;5053657;28;19910;-85
2020/12/06 02:12:42;;;;;;;;;;;3.40;99.90;;;;;;5052969;28;20341;-86
2020/12/06 02:15:08;;;;;;;;;;;3.40;99.90;;;;;;5045972;28;19967;-85
2020/12/06 02:17:33;;;;;;;;;;;3.40;99.90;;;;;;5034708;28;19910;-85
2020/12/06 02:19:59;;;;;;;;;;;3.40;99.90;;;;;;5033665;28;20020;-85
2020/12/06 02:22:24;;;;;;;;;;;3.30;99.90;;;;;;5032936;28;19960;-85
2020/12/06 02:24:50;;;;;;;;;;;3.30;99.90;;;;;;5033607;28;20375;-86
2020/12/06 02:27:15;;;;;;;;;;;3.30;99.90;;;;;;5033353;28;20006;-85
2020/12/06 02:29:41;;;;;;;;;;;3.30;99.90;;;;;;5034522;28;19909;-85
2020/12/06 02:32:06;;;;;;;;;;;3.20;99.90;;;;;;5034645;28;19910;-85
2020/12/06 02:34:31;;;;;;;;;;;3.20;99.90;;;;;;5033257;28;20356;-86
2020/12/06 02:36:57;;;;;;;;;;;3.10;99.90;;;;;;5033197;28;19913;-85
2020/12/06 02:39:22;;;;;;;;;;;3.10;99.90;;;;;;5033182;28;19909;-85
2020/12/06 02:41:48;;;;;;;;;;;3.10;99.90;;;;;;5032945;28;20400;-86
2020/12/06 02:44:13;;;;;;;;;;;3.00;99.90;;;;;;5041271;28;19955;-85
2020/12/06 02:46:39;;;;;;;;;;;3.00;99.90;;;;;;5052706;28;19913;-85
2020/12/06 02:49:05;;;;;;;;;;;3.00;99.90;;;;;;5069600;28;19916;-85
2020/12/06 02:51:30;;;;;;;;;;;3.00;99.90;;;;;;5053014;28;19909;-85
2020/12/06 02:53:56;;;;;;;;;;;2.90;99.90;;;;;;5052687;28;20310;-85
2020/12/06 02:56:22;;;;;;;;;;;2.90;99.90;;;;;;5052609;28;19958;-85
2020/12/06 02:58:47;;;;;;;;;;;2.90;99.90;;;;;;5052651;28;19916;-85
2020/12/06 03:01:13;;;;;;;;;;;2.90;99.90;;;;;;5052803;28;20295;-86
2020/12/06 03:03:39;;;;;;;;;;;2.90;99.90;;;;;;5052716;28;20013;-85
2020/12/06 03:06:05;;;;;;;;;;;2.90;99.90;;;;;;5052480;28;19913;-86
2020/12/06 03:08:31;;;;;;;;;;;2.80;99.90;;;;;;5052557;28;19932;-85
2020/12/06 03:10:57;;;;;;;;;;;2.90;99.90;;;;;;5052545;28;19915;-85
2020/12/06 03:13:22;;;;;;;;;;;2.90;99.90;;;;;;5052269;28;20314;-85
2020/12/06 03:15:48;;;;;;;;;;;2.90;99.90;;;;;;5052277;28;19919;-85
2020/12/06 03:18:13;;;;;;;;;;;2.90;99.90;;;;;;5052294;28;20000;-85
2020/12/06 03:20:38;;;;;;;;;;;2.90;99.90;;;;;;5052450;28;20283;-85
2020/12/06 03:23:04;;;;;;;;;;;2.90;99.90;;;;;;5068899;28;19909;-85
2020/12/06 03:25:29;;;;;;;;;;;3.00;99.90;;;;;;5051244;28;19909;-85
2020/12/06 03:27:55;;;;;;;;;;;3.00;99.90;;;;;;5051975;28;19909;-85
2020/12/06 03:30:20;;;;;;;;;;;3.00;99.90;;;;;;5052051;28;20295;-85
2020/12/06 03:32:46;;;;;;;;;;;3.10;99.90;;;;;;5052058;28;20031;-86
2020/12/06 03:35:11;;;;;;;;;;;3.10;99.90;;;;;;5052002;28;19913;-85
2020/12/06 03:37:37;;;;;;;;;;;3.10;99.90;;;;;;5053269;28;19909;-85
2020/12/06 03:40:03;;;;;;;;;;;3.10;99.90;;;;;;5068484;28;19913;-85
2020/12/06 03:42:28;;;;;;;;;;;3.20;99.90;;;;;;5051857;28;20470;-85
2020/12/06 03:44:54;;;;;;;;;;;3.10;99.90;;;;;;5037995;28;19909;-85
2020/12/06 03:47:19;;;;;;;;;;;3.20;99.90;;;;;;5031768;28;19955;-85
2020/12/06 03:49:44;;;;;;;;;;;3.20;99.90;;;;;;5033060;28;20295;-84
2020/12/06 03:52:10;;;;;;;;;;;3.20;99.90;;;;;;5033131;28;20394;-86
2020/12/06 03:54:35;;;;;;;;;;;3.10;99.90;;;;;;5031680;28;19917;-85
2020/12/06 03:57:01;;;;;;;;;;;3.10;99.90;;;;;;5032832;28;19909;-85
2020/12/06 03:59:26;;;;;;;;;;;3.10;99.90;;;;;;5031633;28;19909;-85
2020/12/06 04:01:52;;;;;;;;;;;3.10;99.90;;;;;;5031582;28;19924;-85
2020/12/06 04:04:17;;;;;;;;;;;3.10;99.90;;;;;;5031703;28;20415;-86
2020/12/06 04:06:43;;;;;;;;;;;3.10;99.90;;;;;;5032748;28;19909;-85
2020/12/06 04:09:08;;;;;;;;;;;3.10;99.90;;;;;;5031474;28;20047;-86
2020/12/06 04:11:34;;;;;;;;;;;3.10;99.90;;;;;;5032904;28;19916;-85
2020/12/06 04:13:59;;;;;;;;;;;3.10;99.90;;;;;;5036456;28;20399;-85
2020/12/06 04:16:25;;;;;;;;;;;3.10;99.90;;;;;;5049192;28;19909;-86
2020/12/06 04:18:50;;;;;;;;;;;3.10;99.90;;;;;;5051582;28;19995;-85
2020/12/06 04:21:16;;;;;;;;;;;3.10;99.90;;;;;;5052618;28;19909;-85
2020/12/06 04:23:41;;;;;;;;;;;3.10;99.90;;;;;;5051415;28;19909;-85
2020/12/06 04:26:07;;;;;;;;;;;3.10;99.90;;;;;;5052179;28;20287;-86
2020/12/06 04:28:32;;;;;;;;;;;3.20;99.90;;;;;;5051253;28;20342;-85
2020/12/06 04:30:58;;;;;;;;;;;3.20;99.90;;;;;;5051231;28;19913;-85
2020/12/06 04:33:23;;;;;;;;;;;3.20;99.90;;;;;;5051268;28;19920;-86
2020/12/06 04:35:49;;;;;;;;;;;3.30;99.90;;;;;;5053526;28;20395;-85
2020/12/06 04:38:14;;;;;;;;;;;3.30;99.90;;;;;;5058830;28;19909;-85
2020/12/06 04:40:40;;;;;;;;;;;3.20;99.90;;;;;;5057832;28;19909;-86
2020/12/06 04:43:06;;;;;;;;;;;3.10;99.90;;;;;;5057521;28;19917;-85
2020/12/06 04:45:31;;;;;;;;;;;3.10;99.90;;;;;;5049437;28;19909;-86
2020/12/06 04:48:04;;;;;;;;;;;3.10;99.90;;;;;;5074288;28;20559;-85
2020/12/06 04:50:34;;;;;;;;;;;3.00;99.90;;;;;;5057750;28;19916;-86
2020/12/06 04:53:01;;;;;;;;;;;3.00;99.90;;;;;;5058856;28;20284;-85
2020/12/06 04:55:28;;;;;;;;;;;3.00;99.90;;;;;;5057722;28;20323;-85
2020/12/06 04:57:55;;;;;;;;;;;3.00;99.90;;;;;;5057580;28;19909;-85
2020/12/06 05:00:26;;;;;;;;;;;3.00;99.90;;;;;;5058859;28;19959;-85
2020/12/06 05:02:53;;;;;;;;;;;3.00;99.90;;;;;;5057597;28;19908;-86
2020/12/06 05:05:20;;;;;;;;;;;3.00;99.90;;;;;;5074265;28;19913;-85
2020/12/06 05:07:45;;;;;;;;;;;3.10;99.90;;;;;;5057664;28;19959;-85
2020/12/06 05:10:11;;;;;;;;;;;3.10;99.90;;;;;;5074353;28;19912;-85
2020/12/06 05:12:36;;;;;;;;;;;3.20;99.90;;;;;;5069420;28;19908;-85
2020/12/06 05:15:02;;;;;;;;;;;3.20;99.90;;;;;;5049465;28;19913;-86
2020/12/06 05:17:27;;;;;;;;;;;3.20;99.90;;;;;;5057125;28;19909;-86
2020/12/06 05:19:53;;;;;;;;;;;3.20;99.90;;;;;;5057555;28;19909;-86
2020/12/06 05:22:18;;;;;;;;;;;3.20;99.90;;;;;;5057394;28;19909;-85
2020/12/06 05:24:44;;;;;;;;;;;3.20;99.90;;;;;;5057643;28;19909;-86
2020/12/06 05:27:10;;;;;;;;;;;3.10;99.90;;;;;;5058440;28;19948;-86
2020/12/06 05:29:39;;;;;;;;;;;3.10;99.90;;;;;;5057329;28;19916;-85
2020/12/06 05:32:06;;;;;;;;;;;3.10;99.90;;;;;;5057247;28;20438;-86
2020/12/06 05:34:31;;;;;;;;;;;3.00;99.90;;;;;;5057222;28;20337;-85
2020/12/06 05:37:02;;;;;;;;;;;3.00;99.90;;;;;;5057040;28;19908;-85
2020/12/06 05:39:28;;;;;;;;;;;3.00;99.90;;;;;;5057122;28;19945;-86
2020/12/06 05:41:53;;;;;;;;;;;2.90;99.90;;;;;;5073849;28;20367;-85
2020/12/06 05:44:19;;;;;;;;;;;2.90;99.90;;;;;;5057185;28;19909;-85
2020/12/06 05:46:45;;;;;;;;;;;2.90;99.90;;;;;;5056219;28;19916;-86
2020/12/06 05:49:10;;;;;;;;;;;2.80;99.90;;;;;;5070008;28;19909;-85
2020/12/06 05:51:35;;;;;;;;;;;2.70;99.90;;;;;;5054122;28;19955;-85
2020/12/06 05:54:01;;;;;;;;;;;2.70;99.90;;;;;;5054181;28;19913;-85
2020/12/06 05:56:27;;;;;;;;;;;2.70;99.90;;;;;;5053977;28;19908;-86
2020/12/06 05:58:53;;;;;;;;;;;2.70;99.90;;;;;;5053901;28;19908;-85
2020/12/06 06:01:19;;;;;;;;;;;2.60;99.90;;;;;;5070506;28;20387;-85
2020/12/06 06:03:59;;;;;;;;;;;2.60;99.90;;;;;;5053763;28;20012;-85
2020/12/06 06:06:25;;;;;;;;;;;2.60;99.90;;;;;;5053585;28;19909;-85
2020/12/06 06:08:54;;;;;;;;;;;2.50;99.90;;;;;;5070464;28;20011;-85
2020/12/06 06:11:26;;;;;;;;;;;2.50;99.90;;;;;;5053725;28;19916;-85
2020/12/06 06:13:53;;;;;;;;;;;2.50;99.90;;;;;;5048123;28;19913;-85
2020/12/06 06:16:20;;;;;;;;;;;2.50;99.90;;;;;;5051889;28;20367;-85
2020/12/06 06:18:46;;;;;;;;;;;2.50;99.90;;;;;;5053415;28;19909;-86
2020/12/06 06:21:12;;;;;;;;;;;2.60;99.90;;;;;;5053504;28;19909;-85
2020/12/06 06:23:38;;;;;;;;;;;2.70;99.90;;;;;;5054690;28;19909;-85
2020/12/06 06:26:04;;;;;;;;;;;2.80;99.90;;;;;;5053176;28;20406;-85
2020/12/06 06:28:30;;;;;;;;;;;2.80;99.90;;;;;;5053318;28;19908;-85
2020/12/06 06:30:55;;;;;;;;;;;2.70;99.90;;;;;;5054888;28;19934;-85
2020/12/06 06:33:21;;;;;;;;;;;2.70;99.90;;;;;;5053906;28;20014;-86
2020/12/06 06:35:47;;;;;;;;;;;2.70;99.90;;;;;;5054490;28;19909;-85
2020/12/06 06:38:12;;;;;;;;;;;2.70;99.90;;;;;;5053370;28;20390;-85
2020/12/06 06:40:39;;;;;;;;;;;2.70;99.90;;;;;;5053431;28;19913;-86
2020/12/06 06:43:05;;;;;;;;;;;2.80;99.90;;;;;;5064521;28;19923;-85
2020/12/06 06:45:42;;;;;;;;;;;2.80;99.90;;;;;;5042420;28;19909;-86
2020/12/06 06:48:10;;;;;;;;;;;2.80;99.90;;;;;;5033207;28;19940;-86
2020/12/06 06:50:37;;;;;;;;;;;2.80;99.90;;;;;;5033066;28;20421;-85
2020/12/06 06:53:02;;;;;;;;;;;2.80;99.90;;;;;;5033244;28;19913;-86
2020/12/06 06:55:46;;;;;;;;;;;2.80;99.90;;;;;;5033057;28;19925;-85
2020/12/06 06:58:11;;;;;;;;;;;2.80;99.90;;;;;;5032687;28;19909;-85
2020/12/06 07:00:37;;;;;;;;;;;2.90;99.90;;;;;;5033144;28;20016;-85
2020/12/06 07:03:02;;;;;;;;;;;2.90;99.90;;;;;;5033010;28;19939;-86
2020/12/06 07:05:28;;;;;;;;;;;2.90;99.90;;;;;;5032871;28;19920;-85
2020/12/06 07:07:54;;;;;;;;;;;3.00;99.90;;;;;;5032784;28;19910;-85
2020/12/06 07:10:21;;;;;;;;;;;3.00;99.90;;;;;;5033349;28;19910;-85
2020/12/06 07:12:47;;;;;;;;;;;3.00;99.90;;;;;;5042343;28;19939;-86
2020/12/06 07:15:14;;;;;;;;;;;3.00;99.90;;;;;;5044320;28;19975;-85
2020/12/06 07:17:39;;;;;;;;;;;3.00;99.90;;;;;;5032870;28;19909;-86
2020/12/06 07:20:06;;;;;;;;;;;3.00;99.90;;;;;;5033779;28;19929;-85
2020/12/06 07:22:31;;;;;;;;;;;3.00;99.90;;;;;;5032510;28;20368;-85
2020/12/06 07:24:57;;;;;;;;;;;3.00;99.90;;;;;;5032498;28;19959;-85
2020/12/06 07:27:23;;;;;;;;;;;3.00;99.90;;;;;;5032319;28;19909;-86
2020/12/06 07:29:48;;;;;;;;;;;3.00;99.90;;;;;;5032361;28;19913;-85
2020/12/06 07:32:14;;;;;;;;;;;3.00;99.90;;;;;;5032312;28;19951;-85
2020/12/06 07:34:39;;;;;;;;;;;3.00;99.90;;;;;;5032149;28;20330;-85
2020/12/06 07:37:05;;;;;;;;;;;2.90;99.90;;;;;;5032096;28;19916;-85
2020/12/06 07:39:30;;;;;;;;;;;3.00;99.90;;;;;;5032081;28;19909;-85
2020/12/06 07:41:55;;;;;;;;;;;3.00;99.90;;;;;;5032228;28;19967;-86
2020/12/06 07:44:21;;;;;;;;;;;3.00;99.90;;;;;;5042634;28;19909;-86
2020/12/06 07:46:59;;;;;;;;;;;2.90;99.90;;;;;;5052962;28;19909;-86
2020/12/06 07:49:25;;;;;;;;;;;2.90;99.90;;;;;;5051959;28;19909;-86
2020/12/06 07:51:50;;;;;;;;;;;2.90;99.90;;;;;;5052002;28;19964;-86
2020/12/06 07:54:16;;;;;;;;;;;2.90;99.90;;;;;;5052064;28;20279;-86
2020/12/06 07:56:42;;;;;;;;;;;2.90;99.90;;;;;;5068575;28;19909;-85
2020/12/06 07:59:26;;;;;;;;;;;2.90;99.90;;;;;;5068678;28;19909;-86
2020/12/06 08:01:53;;;;;;;;;;;2.90;99.90;;;;;;5051942;28;20275;-86
2020/12/06 08:04:20;;;;;;;;;;;2.80;99.90;;;;;;5051792;28;20341;-86
2020/12/06 08:06:47;;;;;;;;;;;2.80;99.90;;;;;;5051868;28;19943;-86
2020/12/06 08:09:13;;;;;;;;;;;2.90;99.90;;;;;;5051688;28;19913;-85
2020/12/06 08:11:42;;;;;;;;;;;2.90;99.90;;;;;;5067696;28;20001;-84
2020/12/06 08:14:07;;;;;;;;;;;3.00;99.90;;;;;;5035740;28;19913;-85
2020/12/06 08:16:33;;;;;;;;;;;3.00;99.90;;;;;;5031511;28;19909;-85
2020/12/06 08:19:00;;;;;;;;;;;3.00;99.90;;;;;;5032649;28;19919;-86
2020/12/06 08:21:38;;;;;;;;;;;3.00;99.90;;;;;;5032747;28;20459;-85
2020/12/06 08:24:03;;;;;;;;;;;3.10;99.90;;;;;;5031609;28;19915;-86
2020/12/06 08:26:35;;;;;;;;;;;3.20;99.90;;;;;;5031477;28;19995;-86
2020/12/06 08:29:01;;;;;;;;;;;3.20;99.90;;;;;;5032613;28;19909;-85
2020/12/06 08:31:26;;;;;;;;;;;3.20;99.90;;;;;;5031394;28;20283;-85
2020/12/06 08:33:52;;;;;;;;;;;3.30;99.90;;;;;;5031362;28;19913;-86
2020/12/06 08:36:23;;;;;;;;;;;3.30;99.90;;;;;;5031454;28;19909;-85
2020/12/06 08:38:49;;;;;;;;;;;3.30;99.90;;;;;;5031341;28;19913;-85
2020/12/06 08:41:14;;;;;;;;;;;3.30;99.90;;;;;;5031375;28;19913;-86
2020/12/06 08:43:41;;;;;;;;;;;3.40;99.90;;;;;;5031249;28;20388;-86
2020/12/06 08:46:07;;;;;;;;;;;3.40;99.90;;;;;;5046495;28;19909;-84
2020/12/06 08:48:32;;;;;;;;;;;3.40;99.90;;;;;;5051028;28;19909;-84
2020/12/06 08:50:58;;;;;;;;;;;3.40;99.90;;;;;;5051022;28;20317;-85
2020/12/06 08:53:23;;;;;;;;;;;3.50;99.90;;;;;;5051149;28;19916;-84
2020/12/06 08:55:48;;;;;;;;;;;3.50;99.90;;;;;;5050848;28;20280;-84
2020/12/06 08:58:27;;;;;;;;;;;3.50;99.90;;;;;;5050927;28;19908;-84
2020/12/06 09:00:53;;;;;;;;;;;3.60;99.90;;;;;;5067659;28;19916;-85
2020/12/06 09:03:18;;;;;;;;;;;3.60;99.90;;;;;;5051568;28;19917;-83
2020/12/06 09:05:47;;;;;;;;;;;3.60;99.90;;;;;;5053208;28;20046;-83
2020/12/06 09:08:12;;;;;;;;;;;3.60;99.90;;;;;;5055101;28;19912;-83
2020/12/06 09:10:38;;;;;;;;;;;3.60;99.90;;;;;;5053454;28;20342;-83
2020/12/06 09:13:03;;;;;;;;;;;3.70;99.90;;;;;;5045466;28;19916;-83
2020/12/06 09:15:28;;;;;;;;;;;3.70;99.90;;;;;;5040198;28;20406;-83
2020/12/06 09:17:54;;;;;;;;;;;3.70;99.90;;;;;;5032149;28;19909;-83
2020/12/06 09:20:19;;;;;;;;;;;3.70;99.90;;;;;;5032417;28;19963;-83
2020/12/06 09:22:45;;;;;;;;;;;3.70;99.90;;;;;;5036446;28;19937;-83
2020/12/06 09:25:10;;;;;;;;;;;3.70;99.90;;;;;;5036192;28;20383;-83
2020/12/06 09:27:36;;;;;;;;;;;3.60;99.90;;;;;;5037582;28;19951;-82
2020/12/06 09:30:01;;;;;;;;;;;3.60;99.90;;;;;;5036802;28;20006;-86
2020/12/06 09:32:27;;;;;;;;;;;3.60;99.90;;;;;;5034427;28;19909;-83
2020/12/06 09:34:52;;;;;;;;;;;3.60;99.90;;;;;;5035448;28;19920;-84
2020/12/06 09:37:18;;;;;;;;;;;3.60;99.90;;;;;;5034181;28;19919;-84
2020/12/06 09:39:43;;;;;;;;;;;3.60;99.90;;;;;;5035532;28;19909;-84
2020/12/06 09:42:09;;;;;;;;;;;3.60;99.90;;;;;;5038610;28;19943;-84
2020/12/06 09:44:34;;;;;;;;;;;3.60;99.90;;;;;;5051176;28;20359;-86
2020/12/06 09:47:00;;;;;;;;;;;3.60;99.90;;;;;;5034076;28;19917;-86
2020/12/06 09:49:25;;;;;;;;;;;3.60;99.90;;;;;;5034167;28;19975;-86
2020/12/06 09:51:51;;;;;;;;;;;3.60;99.90;;;;;;5034130;28;19916;-85
2020/12/06 09:54:16;;;;;;;;;;;3.70;99.90;;;;;;5034133;28;19913;-86
2020/12/06 09:56:41;;;;;;;;;;;3.70;99.90;;;;;;5035516;28;19956;-86
2020/12/06 09:59:07;;;;;;;;;;;3.70;99.90;;;;;;5035238;28;19956;-85
2020/12/06 10:01:32;;;;;;;;;;;3.70;99.90;;;;;;5034020;28;19967;-85
2020/12/06 10:03:58;;;;;;;;;;;3.70;99.90;;;;;;5034050;28;19972;-86
2020/12/06 10:06:24;;;;;;;;;;;3.80;99.90;;;;;;5033967;28;19909;-85
2020/12/06 10:08:50;;;;;;;;;;;3.80;99.90;;;;;;5034147;28;20272;-85
2020/12/06 10:11:15;;;;;;;;;;;3.80;99.90;;;;;;5033891;28;19909;-85
2020/12/06 10:13:41;;;;;;;;;;;3.80;99.90;;;;;;5041933;28;19913;-85
2020/12/06 10:16:06;;;;;;;;;;;3.80;99.90;;;;;;5048925;28;19909;-85
2020/12/06 10:18:32;;;;;;;;;;;3.70;99.90;;;;;;5053701;28;19909;-86
2020/12/06 10:20:57;;;;;;;;;;;3.70;99.90;;;;;;5054012;28;20360;-86
2020/12/06 10:23:23;;;;;;;;;;;3.70;99.90;;;;;;5053932;28;19912;-87
2020/12/06 10:25:48;;;;;;;;;;;3.70;99.90;;;;;;5054796;28;19920;-86
2020/12/06 10:28:14;;;;;;;;;;;3.70;99.90;;;;;;5053509;28;19955;-86
2020/12/06 10:30:39;;;;;;;;;;;3.60;99.90;;;;;;5053465;28;19958;-86
2020/12/06 10:33:04;;;;;;;;;;;3.70;99.90;;;;;;5054071;28;19909;-85
2020/12/06 10:35:30;;;;;;;;;;;3.70;99.90;;;;;;5053175;28;19913;-85
2020/12/06 10:37:55;;;;;;;;;;;3.70;99.90;;;;;;5053163;28;20318;-85
2020/12/06 10:40:21;;;;;;;;;;;3.70;99.90;;;;;;5053197;28;19916;-84
2020/12/06 10:42:48;;;;;;;;;;;3.70;99.90;;;;;;5053082;28;20415;-85
2020/12/06 10:45:14;;;;;;;;;;;3.80;99.90;;;;;;5045753;28;19910;-87
2020/12/06 10:47:39;;;;;;;;;;;3.80;99.90;;;;;;5035008;28;19917;-87
2020/12/06 10:50:05;;;;;;;;;;;3.90;99.90;;;;;;5034860;28;19915;-87
2020/12/06 10:52:30;;;;;;;;;;;3.90;99.90;;;;;;5035650;28;19909;-87
2020/12/06 10:54:56;;;;;;;;;;;3.90;99.90;;;;;;5033775;28;19913;-87
2020/12/06 10:57:21;;;;;;;;;;;3.90;99.90;;;;;;5033123;28;19996;-86
2020/12/06 10:59:47;;;;;;;;;;;4.00;99.90;;;;;;5033482;28;20283;-86
2020/12/06 11:02:12;;;;;;;;;;;4.00;99.90;;;;;;5033576;28;19955;-86
2020/12/06 11:04:38;;;;;;;;;;;4.00;99.90;;;;;;5033304;28;20163;-86
2020/12/06 11:07:03;;;;;;;;;;;4.10;99.90;;;;;;5033186;28;19909;-87
2020/12/06 11:09:29;;;;;;;;;;;4.20;99.90;;;;;;5033851;28;19913;-86
2020/12/06 11:11:54;;;;;;;;;;;4.20;99.90;;;;;;5033752;28;20330;-87
2020/12/06 11:14:20;;;;;;;;;;;4.20;99.90;;;;;;5051545;28;19913;-87
2020/12/06 11:16:48;;;;;;;;;;;4.20;99.90;;;;;;5071221;28;19916;-87
2020/12/06 11:19:14;;;;;;;;;;;4.40;99.90;;;;;;5055607;28;19916;-87
2020/12/06 11:21:39;;;;;;;;;;;4.40;99.90;;;;;;5071272;28;20324;-87
2020/12/06 11:24:05;;;;;;;;;;;4.50;99.90;;;;;;5054830;28;19983;-87
2020/12/06 11:26:31;;;;;;;;;;;4.50;99.90;;;;;;5054701;28;19959;-87
2020/12/06 11:28:56;;;;;;;;;;;4.60;99.90;;;;;;5054760;28;19909;-87
2020/12/06 11:31:22;;;;;;;;;;;4.70;99.90;;;;;;5071262;28;19915;-86
2020/12/06 11:33:47;;;;;;;;;;;4.70;99.90;;;;;;5054417;28;20414;-86
2020/12/06 11:36:13;;;;;;;;;;;4.60;99.90;;;;;;5055841;28;19909;-87
2020/12/06 11:38:38;;;;;;;;;;;4.50;99.90;;;;;;5055486;28;19913;-87
2020/12/06 11:41:04;;;;;;;;;;;4.60;99.90;;;;;;5053881;28;19909;-87
2020/12/06 11:43:30;;;;;;;;;;;4.50;99.90;;;;;;5053896;28;19913;-87
2020/12/06 11:45:55;;;;;;;;;;;4.50;99.90;;;;;;5052889;28;20126;-87
2020/12/06 11:48:21;;;;;;;;;;;4.50;99.90;;;;;;5053996;28;19909;-87
2020/12/06 11:50:46;;;;;;;;;;;4.50;99.90;;;;;;5053703;28;19908;-87
2020/12/06 11:53:12;;;;;;;;;;;4.60;99.90;;;;;;5055173;28;19909;-87
2020/12/06 11:55:37;;;;;;;;;;;4.60;99.90;;;;;;5053542;28;19952;-87
2020/12/06 11:58:03;;;;;;;;;;;4.60;99.90;;;;;;5053169;28;19931;-87
2020/12/06 12:00:28;;;;;;;;;;;4.60;99.90;;;;;;5054756;28;20003;-86
2020/12/06 12:02:54;;;;;;;;;;;4.70;99.90;;;;;;5053436;28;19908;-87
2020/12/06 12:05:19;;;;;;;;;;;4.70;99.90;;;;;;5053202;28;19909;-87
2020/12/06 12:07:44;;;;;;;;;;;4.70;99.90;;;;;;5054097;28;19913;-87
2020/12/06 12:10:11;;;;;;;;;;;4.80;99.90;;;;;;5054911;28;19908;-87
2020/12/06 12:12:36;;;;;;;;;;;4.90;99.90;;;;;;5052994;28;19970;-87
2020/12/06 12:15:04;;;;;;;;;;;4.90;99.90;;;;;;5053339;28;19912;-87
2020/12/06 12:17:31;;;;;;;;;;;5.00;99.90;;;;;;5052927;28;19915;-87
2020/12/06 12:19:57;;;;;;;;;;;5.00;99.90;;;;;;5053224;28;20004;-87
2020/12/06 12:22:23;;;;;;;;;;;5.00;99.90;;;;;;5052928;28;19956;-87
2020/12/06 12:24:49;;;;;;;;;;;5.00;99.90;;;;;;5052925;28;19920;-87
2020/12/06 12:27:14;;;;;;;;;;;5.00;99.90;;;;;;5052800;28;19909;-87
2020/12/06 12:29:40;;;;;;;;;;;4.90;99.90;;;;;;5052831;28;20360;-86
2020/12/06 12:32:05;;;;;;;;;;;4.90;99.90;;;;;;5053157;28;20392;-87
2020/12/06 12:34:31;;;;;;;;;;;4.90;99.90;;;;;;5052770;28;20015;-87
2020/12/06 12:36:56;;;;;;;;;;;5.00;99.90;;;;;;5052750;28;19909;-87
2020/12/06 12:39:22;;;;;;;;;;;5.10;99.90;;;;;;5069323;28;19909;-87
2020/12/06 12:41:49;;;;;;;;;;;5.10;99.90;;;;;;5052358;28;19917;-87
2020/12/06 12:44:14;;;;;;;;;;;5.10;99.90;;;;;;5069254;28;19909;-87
2020/12/06 12:46:40;;;;;;;;;;;5.20;99.90;;;;;;5052455;28;19916;-87
2020/12/06 12:49:05;;;;;;;;;;;5.20;99.90;;;;;;5053602;28;19959;-87
2020/12/06 12:51:31;;;;;;;;;;;5.20;99.90;;;;;;5068712;28;19908;-87
2020/12/06 12:53:57;;;;;;;;;;;5.20;99.90;;;;;;5052417;28;19960;-87
2020/12/06 12:56:23;;;;;;;;;;;5.20;99.90;;;;;;5052595;28;19995;-87
2020/12/06 12:58:48;;;;;;;;;;;5.20;99.90;;;;;;5056147;28;19928;-87
2020/12/06 13:01:14;;;;;;;;;;;5.20;99.90;;;;;;5072811;28;19909;-87
2020/12/06 13:03:39;;;;;;;;;;;5.10;99.90;;;;;;5055863;28;20372;-86
2020/12/06 13:06:05;;;;;;;;;;;5.10;99.90;;;;;;5057142;28;19909;-86
2020/12/06 13:08:30;;;;;;;;;;;5.10;99.90;;;;;;5055658;28;20411;-87
2020/12/06 13:10:56;;;;;;;;;;;5.10;99.90;;;;;;5055730;28;19908;-87
2020/12/06 13:13:21;;;;;;;;;;;5.10;99.90;;;;;;5055460;28;19909;-87
2020/12/06 13:15:47;;;;;;;;;;;5.00;99.90;;;;;;5055477;28;19995;-87
2020/12/06 13:18:12;;;;;;;;;;;5.00;99.90;;;;;;5055437;28;19966;-88
2020/12/06 13:20:38;;;;;;;;;;;5.00;99.90;;;;;;5055496;28;19913;-86
2020/12/06 13:23:04;;;;;;;;;;;4.90;99.90;;;;;;5055463;28;19909;-87
2020/12/06 13:25:29;;;;;;;;;;;4.90;99.90;;;;;;5056637;28;19909;-87
2020/12/06 13:27:55;;;;;;;;;;;4.90;99.90;;;;;;5055125;28;19955;-87
2020/12/06 13:30:20;;;;;;;;;;;4.90;99.90;;;;;;5055222;28;19908;-87
2020/12/06 13:32:45;;;;;;;;;;;4.90;99.90;;;;;;5055278;28;20377;-87
2020/12/06 13:35:11;;;;;;;;;;;4.80;99.90;;;;;;5055108;28;19920;-88
2020/12/06 13:37:36;;;;;;;;;;;4.80;99.90;;;;;;5055321;28;19935;-87
2020/12/06 13:40:03;;;;;;;;;;;4.80;99.90;;;;;;5054890;28;19908;-87
2020/12/06 13:42:28;;;;;;;;;;;4.80;99.90;;;;;;5054896;28;19963;-87
2020/12/06 13:44:54;;;;;;;;;;;4.80;99.90;;;;;;5054964;28;19909;-87
2020/12/06 13:47:19;;;;;;;;;;;4.80;99.90;;;;;;5054888;28;19909;-87
2020/12/06 13:49:45;;;;;;;;;;;4.80;99.90;;;;;;5054790;28;19967;-87
2020/12/06 13:52:10;;;;;;;;;;;4.80;99.90;;;;;;5055999;28;19916;-86
2020/12/06 13:54:36;;;;;;;;;;;4.80;99.90;;;;;;5055852;28;19919;-87
2020/12/06 13:57:02;;;;;;;;;;;4.80;99.90;;;;;;5054976;28;20340;-87
2020/12/06 13:59:27;;;;;;;;;;;4.70;99.90;;;;;;5071225;28;19995;-87
2020/12/06 14:01:53;;;;;;;;;;;4.70;99.90;;;;;;5055885;28;19915;-86
2020/12/06 14:04:18;;;;;;;;;;;4.70;99.90;;;;;;5054744;28;19935;-87
2020/12/06 14:06:44;;;;;;;;;;;4.70;99.90;;;;;;5054454;28;19916;-87
2020/12/06 14:09:09;;;;;;;;;;;4.80;99.90;;;;;;5054641;28;19913;-87
2020/12/06 14:11:35;;;;;;;;;;;4.70;99.90;;;;;;5054483;28;19971;-87
2020/12/06 14:14:00;;;;;;;;;;;4.80;99.90;;;;;;5054334;28;19936;-87
2020/12/06 14:16:26;;;;;;;;;;;4.70;99.90;;;;;;5054366;28;20535;-87
2020/12/06 14:18:51;;;;;;;;;;;4.70;99.90;;;;;;5054453;28;19916;-86
2020/12/06 14:21:18;;;;;;;;;;;4.70;99.90;;;;;;5054327;28;19909;-86
2020/12/06 14:23:44;;;;;;;;;;;4.70;99.90;;;;;;5054306;28;20001;-87